Seago Piraeus — OXVD2 — position and weather

sailwx.info

Track history (hours):
 
Tides and Currents Weather Stations Pressure Air Temp Water Temp Dewpoint Dewpoint Depression Visibility Wind Speed Wind Dir Waves Ship Positions

Seago Piraeus

Last reported at 2014-Dec-19 20:32 UTC. Time now 2014-Dec-19 21:41 UTC.
Position N 53°55' E 007°46'.

Length 294 m; draft 10.5 m.

Type: Ship (hazmat cat A). MMSI: 219117000.

Date/timePositionNaut miles runAvg speedWind from/ knotsBaromVisibWave heightAir tempDewpointWater temp
2014-Dec-19 20:32N 53°55' E 007°46'0 0.0
2014-Dec-19 19:32N 53°55' E 007°46'0 0.0
2014-Dec-19 18:32N 53°55' E 007°46'0 0.0
2014-Dec-19 16:29N 53°55' E 007°46'0 0.0
2014-Dec-19 14:17N 53°55' E 007°46'0 0.0
2014-Dec-19 13:23N 53°55' E 007°46'0 0.0
2014-Dec-19 11:29N 53°55' E 007°46'3 2.8
2014-Dec-19 10:34N 53°56' E 007°42'1812.7
2014-Dec-19 09:10N 53°52' E 007°13'813.5
2014-Dec-19 08:33N 53°50' E 006°59'1413.8
2014-Dec-19 07:33N 53°48' E 006°36'1413.9
2014-Dec-19 06:33N 53°44' E 006°14'1414.1
2014-Dec-19 05:33N 53°39' E 005°51'1514.5
2014-Dec-19 04:33N 53°35' E 005°28'1515.1
2014-Dec-19 03:33N 53°30' E 005°04'1514.6
2014-Dec-19 02:33N 53°22' E 004°43'1514.5
2014-Dec-19 01:33N 53°10' E 004°31'1414.6
2014-Dec-19 00:33N 52°57' E 004°20'1414.4
2014-Dec-18 23:33N 52°45' E 004°06'1414.0
2014-Dec-18 22:33N 52°38' E 003°45'7712.9
2014-Dec-18 16:33N 51°52' E 002°05'1211.9
2014-Dec-18 15:33N 51°50' E 001°46'1111.0
2014-Dec-18 14:34N 51°56' E 001°31'8 8.4
2014-Dec-18 13:33N 51°58' E 001°18'0 0.0
2014-Dec-18 12:32N 51°58' E 001°18'0 0.0
2014-Dec-18 11:32N 51°57' E 001°18'0 0.0
2014-Dec-18 10:32N 51°58' E 001°18'0 0.0
2014-Dec-18 09:32N 51°58' E 001°18'0 0.0
2014-Dec-18 08:32N 51°58' E 001°18'0 0.0
2014-Dec-18 07:32N 51°58' E 001°18'0 0.0
2014-Dec-18 06:32N 51°58' E 001°18'0 0.0
2014-Dec-18 05:32N 51°57' E 001°18'0 0.0
2014-Dec-18 04:32N 51°58' E 001°18'0 0.0
2014-Dec-18 03:32N 51°58' E 001°18'0 0.0
2014-Dec-18 02:32N 51°57' E 001°18'0 0.0
2014-Dec-18 01:32N 51°58' E 001°18'0 0.0
2014-Dec-18 00:34N 51°58' E 001°18'0 0.0
2014-Dec-17 23:33N 51°58' E 001°18'0 0.0
2014-Dec-17 22:33N 51°58' E 001°18'0 0.0
2014-Dec-17 21:33N 51°58' E 001°18'0 0.0
2014-Dec-17 20:33N 51°58' E 001°18'0 0.1
2014-Dec-17 19:33N 51°57' E 001°18'6 6.3
2014-Dec-17 18:33N 51°56' E 001°28'10 9.8
2014-Dec-17 17:34N 51°52' E 001°42'4 3.6
2014-Dec-17 16:33N 51°53' E 001°48'4 3.8
2014-Dec-17 15:33N 51°49' E 001°49'6 6.3
2014-Dec-17 14:34N 51°43' E 001°49'7 7.1
2014-Dec-17 13:33N 51°36' E 001°48'9 9.1
2014-Dec-17 12:33N 51°27' E 001°45'1312.5
2014-Dec-17 11:33N 51°15' E 001°40'1212.1
2014-Dec-17 10:34N 51°03' E 001°37'1515.0
2014-Dec-17 09:34N 50°50' E 001°24'  
2014-Dec-14 12:33N 39°14' W 009°50'1211.6
2014-Dec-14 11:33N 39°03' W 009°50'1211.7
2014-Dec-14 10:33N 38°51' W 009°50'1110.9
2014-Dec-14 09:33N 38°40' W 009°50'1110.8
2014-Dec-14 08:33N 38°30' W 009°46'1010.2
2014-Dec-14 07:33N 38°20' W 009°43'1010.4
2014-Dec-14 06:33N 38°10' W 009°40'1010.0
2014-Dec-14 05:33N 38°00' W 009°37'1010.3
2014-Dec-14 04:33N 37°50' W 009°33'1010.2
2014-Dec-14 03:33N 37°40' W 009°30'1010.1
2014-Dec-14 02:33N 37°31' W 009°27'55 9.1
2014-Dec-13 20:29N 36°42' W 008°54'1011.0
2014-Dec-13 19:33N 36°39' W 008°42'16311.3
2014-Dec-13 05:08N 35°60' W 005°26'711.3
2014-Dec-13 04:33N 36°02' W 005°18'19813.0
2014-Dec-12 13:17N 37°01' W 001°23'1013.8
2014-Dec-12 12:33N 37°08' W 001°14'1514.8
2014-Dec-12 11:33N 37°17' W 000°60'1514.5
2014-Dec-12 10:33N 37°26' W 000°45'1514.7
2014-Dec-12 09:33N 37°36' W 000°31'1514.6
2014-Dec-12 08:33N 37°48' W 000°21'1414.3
2014-Dec-12 07:33N 38°00' W 000°11'8111.6
2014-Dec-12 00:33N 39°21' W 000°12'7 7.3
2014-Dec-11 23:32N 39°26' W 000°19'0 0.0
2014-Dec-11 22:31N 39°26' W 000°19'0 0.0
2014-Dec-11 21:31N 39°26' W 000°19'0 0.0
2014-Dec-11 20:28N 39°26' W 000°19'0 0.0
2014-Dec-11 19:31N 39°26' W 000°19'0 0.0
2014-Dec-11 18:31N 39°26' W 000°19'0 0.0
2014-Dec-11 17:19N 39°26' W 000°19'0 0.0
2014-Dec-11 16:31N 39°26' W 000°19'0 0.0
2014-Dec-11 15:28N 39°26' W 000°19'0 0.0
2014-Dec-11 14:31N 39°26' W 000°20'0 0.0
2014-Dec-11 13:31N 39°26' W 000°19'0 0.0
2014-Dec-11 12:25N 39°26' W 000°19'1 1.3
2014-Dec-11 11:33N 39°26' W 000°18'6 6.1
2014-Dec-11 10:33N 39°24' W 000°10'5011.5
2014-Dec-11 06:15N 39°17' E 000°53'1113.0
2014-Dec-11 05:25N 39°16' E 001°07'1113.2
2014-Dec-11 04:33N 39°14' E 001°21'1313.4
2014-Dec-11 03:33N 39°12' E 001°39'1413.5
2014-Dec-11 02:33N 39°08' E 001°55'1313.5
2014-Dec-11 01:33N 39°05' E 002°12'1313.3
2014-Dec-11 00:34N 39°03' E 002°29'610.7
2014-Dec-11 00:00N 39°00' E 002°36'817.4 280 / 181026.110.8 2.015.0 5.616.0
2014-Dec-10 23:33N 38°60' E 002°46'815.1
2014-Dec-10 23:00N 38°54' E 002°54'716.0 290 / 161027.010.8 1.515.1 5.717.0
2014-Dec-10 22:33N 38°56' E 003°03'1313.2
2014-Dec-10 21:33N 38°53' E 003°19'1313.1
2014-Dec-10 20:33N 38°50' E 003°35'10812.7
2014-Dec-10 12:00N 38°18' E 005°48'7612.7 350 / 281022.410.8 3.516.0 8.118.0
2014-Dec-10 06:00N 38°06' E 007°24'   010 / 261018.410.8 3.515.0 6.918.0
Track history (hours):
 
Tides and Currents Weather Stations Pressure Air Temp Water Temp Dewpoint Dewpoint Depression Visibility Wind Speed Wind Dir Waves Ship Positions

Seago Piraeus

Last reported at 2014-Dec-19 20:32 UTC. Time now 2014-Dec-19 21:41 UTC.
Position N 53°55' E 007°46'.

Length 294 m; draft 10.5 m.

Type: Ship (hazmat cat A). MMSI: 219117000.

Date/timePositionNaut miles runAvg speedWind from/ knotsBaromVisibWave heightAir tempDewpointWater temp
2014-Dec-19 20:32N 53°55' E 007°46'0 0.0
2014-Dec-19 19:32N 53°55' E 007°46'0 0.0
2014-Dec-19 18:32N 53°55' E 007°46'0 0.0
2014-Dec-19 16:29N 53°55' E 007°46'0 0.0
2014-Dec-19 14:17N 53°55' E 007°46'0 0.0
2014-Dec-19 13:23N 53°55' E 007°46'0 0.0
2014-Dec-19 11:29N 53°55' E 007°46'3 2.8
2014-Dec-19 10:34N 53°56' E 007°42'1812.7
2014-Dec-19 09:10N 53°52' E 007°13'813.5
2014-Dec-19 08:33N 53°50' E 006°59'1413.8
2014-Dec-19 07:33N 53°48' E 006°36'1413.9
2014-Dec-19 06:33N 53°44' E 006°14'1414.1
2014-Dec-19 05:33N 53°39' E 005°51'1514.5
2014-Dec-19 04:33N 53°35' E 005°28'1515.1
2014-Dec-19 03:33N 53°30' E 005°04'1514.6
2014-Dec-19 02:33N 53°22' E 004°43'1514.5
2014-Dec-19 01:33N 53°10' E 004°31'1414.6
2014-Dec-19 00:33N 52°57' E 004°20'1414.4
2014-Dec-18 23:33N 52°45' E 004°06'1414.0
2014-Dec-18 22:33N 52°38' E 003°45'7712.9
2014-Dec-18 16:33N 51°52' E 002°05'1211.9
2014-Dec-18 15:33N 51°50' E 001°46'1111.0
2014-Dec-18 14:34N 51°56' E 001°31'8 8.4
2014-Dec-18 13:33N 51°58' E 001°18'0 0.0
2014-Dec-18 12:32N 51°58' E 001°18'0 0.0
2014-Dec-18 11:32N 51°57' E 001°18'0 0.0
2014-Dec-18 10:32N 51°58' E 001°18'0 0.0
2014-Dec-18 09:32N 51°58' E 001°18'0 0.0
2014-Dec-18 08:32N 51°58' E 001°18'0 0.0
2014-Dec-18 07:32N 51°58' E 001°18'0 0.0
2014-Dec-18 06:32N 51°58' E 001°18'0 0.0
2014-Dec-18 05:32N 51°57' E 001°18'0 0.0
2014-Dec-18 04:32N 51°58' E 001°18'0 0.0
2014-Dec-18 03:32N 51°58' E 001°18'0 0.0
2014-Dec-18 02:32N 51°57' E 001°18'0 0.0
2014-Dec-18 01:32N 51°58' E 001°18'0 0.0
2014-Dec-18 00:34N 51°58' E 001°18'0 0.0
2014-Dec-17 23:33N 51°58' E 001°18'0 0.0
2014-Dec-17 22:33N 51°58' E 001°18'0 0.0
2014-Dec-17 21:33N 51°58' E 001°18'0 0.0
2014-Dec-17 20:33N 51°58' E 001°18'0 0.1
2014-Dec-17 19:33N 51°57' E 001°18'6 6.3
2014-Dec-17 18:33N 51°56' E 001°28'10 9.8
2014-Dec-17 17:34N 51°52' E 001°42'4 3.6
2014-Dec-17 16:33N 51°53' E 001°48'4 3.8
2014-Dec-17 15:33N 51°49' E 001°49'6 6.3
2014-Dec-17 14:34N 51°43' E 001°49'7 7.1
2014-Dec-17 13:33N 51°36' E 001°48'9 9.1
2014-Dec-17 12:33N 51°27' E 001°45'1312.5
2014-Dec-17 11:33N 51°15' E 001°40'1212.1
2014-Dec-17 10:34N 51°03' E 001°37'1515.0
2014-Dec-17 09:34N 50°50' E 001°24'  
2014-Dec-14 12:33N 39°14' W 009°50'1211.6
2014-Dec-14 11:33N 39°03' W 009°50'1211.7
2014-Dec-14 10:33N 38°51' W 009°50'1110.9
2014-Dec-14 09:33N 38°40' W 009°50'1110.8
2014-Dec-14 08:33N 38°30' W 009°46'1010.2
2014-Dec-14 07:33N 38°20' W 009°43'1010.4
2014-Dec-14 06:33N 38°10' W 009°40'1010.0
2014-Dec-14 05:33N 38°00' W 009°37'1010.3
2014-Dec-14 04:33N 37°50' W 009°33'1010.2
2014-Dec-14 03:33N 37°40' W 009°30'1010.1
2014-Dec-14 02:33N 37°31' W 009°27'55 9.1
2014-Dec-13 20:29N 36°42' W 008°54'1011.0
2014-Dec-13 19:33N 36°39' W 008°42'16311.3
2014-Dec-13 05:08N 35°60' W 005°26'711.3
2014-Dec-13 04:33N 36°02' W 005°18'19813.0
2014-Dec-12 13:17N 37°01' W 001°23'1013.8
2014-Dec-12 12:33N 37°08' W 001°14'1514.8
2014-Dec-12 11:33N 37°17' W 000°60'1514.5
2014-Dec-12 10:33N 37°26' W 000°45'1514.7
2014-Dec-12 09:33N 37°36' W 000°31'1514.6
2014-Dec-12 08:33N 37°48' W 000°21'1414.3
2014-Dec-12 07:33N 38°00' W 000°11'8111.6
2014-Dec-12 00:33N 39°21' W 000°12'7 7.3
2014-Dec-11 23:32N 39°26' W 000°19'0 0.0
2014-Dec-11 22:31N 39°26' W 000°19'0 0.0
2014-Dec-11 21:31N 39°26' W 000°19'0 0.0
2014-Dec-11 20:28N 39°26' W 000°19'0 0.0
2014-Dec-11 19:31N 39°26' W 000°19'0 0.0
2014-Dec-11 18:31N 39°26' W 000°19'0 0.0
2014-Dec-11 17:19N 39°26' W 000°19'0 0.0
2014-Dec-11 16:31N 39°26' W 000°19'0 0.0
2014-Dec-11 15:28N 39°26' W 000°19'0 0.0
2014-Dec-11 14:31N 39°26' W 000°20'0 0.0
2014-Dec-11 13:31N 39°26' W 000°19'0 0.0
2014-Dec-11 12:25N 39°26' W 000°19'1 1.3
2014-Dec-11 11:33N 39°26' W 000°18'6 6.1
2014-Dec-11 10:33N 39°24' W 000°10'5011.5
2014-Dec-11 06:15N 39°17' E 000°53'1113.0
2014-Dec-11 05:25N 39°16' E 001°07'1113.2
2014-Dec-11 04:33N 39°14' E 001°21'1313.4
2014-Dec-11 03:33N 39°12' E 001°39'1413.5
2014-Dec-11 02:33N 39°08' E 001°55'1313.5
2014-Dec-11 01:33N 39°05' E 002°12'1313.3
2014-Dec-11 00:34N 39°03' E 002°29'610.7
2014-Dec-11 00:00N 39°00' E 002°36'817.4 280 / 181026.110.8 2.015.0 5.616.0
2014-Dec-10 23:33N 38°60' E 002°46'815.1
2014-Dec-10 23:00N 38°54' E 002°54'716.0 290 / 161027.010.8 1.515.1 5.717.0
2014-Dec-10 22:33N 38°56' E 003°03'1313.2
2014-Dec-10 21:33N 38°53' E 003°19'1313.1
2014-Dec-10 20:33N 38°50' E 003°35'10812.7
2014-Dec-10 12:00N 38°18' E 005°48'7612.7 350 / 281022.410.8 3.516.0 8.118.0
2014-Dec-10 06:00N 38°06' E 007°24'   010 / 261018.410.8 3.515.0 6.918.0

Dump ship's entire track history